Time;durP1;ratioP1;P1;durP2;ratioP2;P2;SDS_P1;SDS_P2;PMS_P1;PMS_P2;Temp;Humidity;BMP_temperature;BMP_pressure;BME280_temperature;BME280_humidity;BME280_pressure;Samples;Min_cycle;Max_cycle;Signal;HPM_P1;HPM_P2
2022/01/20 00:00:45;;;;;;;43.42;19.55;;;;;;;2.63;42.30;95844.75;4989359;28;20232;-68
2022/01/20 00:03:19;;;;;;;41.78;19.25;;;;;;;2.78;41.75;95838.56;4989020;28;20230;-69
2022/01/20 00:27:36;;;;;;;48.00;22.05;;;;;;;2.14;43.68;95823.91;4992975;28;20200;-68
2022/01/20 00:37:14;;;;;;;45.60;21.92;;;;;;;2.53;42.91;95808.03;4992893;28;20194;-69
2022/01/20 00:38:17;;;;;;;41.22;21.65;;;;;;;2.66;42.55;95818.53;4992308;28;20245;-69
2022/01/20 00:40:44;;;;;;;43.92;20.58;;;;;;;2.46;42.44;95789.88;4991200;28;20234;-70
2022/01/20 00:43:11;;;;;;;41.33;20.73;;;;;;;2.67;42.34;95818.34;4991228;28;20222;-69
2022/01/20 00:45:39;;;;;;;48.50;21.42;;;;;;;2.64;42.33;95810.94;4992327;28;20244;-69
2022/01/20 00:48:06;;;;;;;40.22;19.95;;;;;;;2.66;42.04;95814.16;4991890;28;20199;-68
2022/01/20 00:50:38;;;;;;;40.88;20.15;;;;;;;2.89;41.51;95817.34;4992462;28;20196;-68
2022/01/20 00:53:05;;;;;;;39.95;20.92;;;;;;;2.68;41.59;95796.63;4990541;28;20290;-67
2022/01/20 00:55:33;;;;;;;42.70;20.17;;;;;;;2.63;41.94;95805.94;4992084;28;20198;-69
2022/01/20 00:58:01;;;;;;;37.30;19.55;;;;;;;2.51;42.32;95805.63;4991623;28;20186;-71
2022/01/20 01:00:28;;;;;;;40.08;20.25;;;;;;;2.38;42.69;95802.09;4992208;28;20325;-68
2022/01/20 01:02:56;;;;;;;42.83;19.63;;;;;;;2.45;42.35;95790.03;4991632;28;20210;-70
2022/01/20 01:05:24;;;;;;;36.15;19.60;;;;;;;2.54;41.91;95810.44;4991797;28;20186;-69
2022/01/20 01:07:53;;;;;;;39.25;20.85;;;;;;;2.68;41.71;95801.81;5006622;28;20617;-69
2022/01/20 01:10:30;;;;;;;40.75;20.75;;;;;;;2.62;41.69;95797.41;4992240;28;20203;-69
2022/01/20 01:13:08;;;;;;;40.80;20.42;;;;;;;2.57;41.63;95804.91;4991332;28;20198;-70
2022/01/20 01:15:41;;;;;;;40.20;20.90;;;;;;;2.79;41.61;95809.09;4991699;28;20289;-69
2022/01/20 01:23:34;;;;;;;42.08;20.95;;;;;;;2.93;41.67;95800.47;5006349;28;20198;-68
2022/01/20 01:26:11;;;;;;;47.72;22.08;;;;;;;2.79;41.70;95790.97;4990740;28;20197;-70
2022/01/20 01:28:38;;;;;;;43.95;22.48;;;;;;;2.81;41.70;95793.41;4991627;28;20230;-69
2022/01/20 01:34:08;;;;;;;45.38;22.38;;;;;;;2.56;41.91;95784.38;4990468;28;20713;-68
2022/01/20 01:39:38;;;;;;;45.58;21.80;;;;;;;2.17;42.56;95771.03;4989084;28;20230;-69
2022/01/20 01:42:33;;;;;;;39.08;20.77;;;;;;;2.26;42.21;95759.59;4990918;28;20550;-70
2022/01/20 01:45:15;;;;;;;45.28;22.23;;;;;;;2.01;42.69;95767.69;5005919;28;20233;-71
2022/01/20 01:47:44;;;;;;;51.67;23.10;;;;;;;2.17;42.50;95756.34;5007380;28;20222;-69
2022/01/20 01:50:17;;;;;;;59.35;25.98;;;;;;;2.17;42.79;95761.50;5006933;28;20213;-69
2022/01/20 01:52:44;;;;;;;57.53;25.88;;;;;;;2.12;42.66;95761.25;5006113;28;20206;-69
2022/01/20 01:55:11;;;;;;;64.18;27.95;;;;;;;2.20;42.65;95750.78;4989743;28;20229;-70
2022/01/20 01:57:41;;;;;;;50.35;24.92;;;;;;;1.34;43.99;95755.09;5022163;28;20210;-69
2022/01/20 02:00:11;;;;;;;58.45;25.23;;;;;;;1.11;44.71;95742.25;4989350;28;20229;-69
2022/01/20 02:02:47;;;;;;;49.72;22.73;;;;;;;1.31;45.21;95758.03;4989326;28;20591;-70
2022/01/20 02:05:20;;;;;;;50.88;25.05;;;;;;;1.84;43.81;95744.81;5006973;28;20293;-68
2022/01/20 02:19:12;;;;;;;45.65;21.50;;;;;;;2.35;42.42;95737.81;5005245;28;20205;-71
2022/01/20 02:21:48;;;;;;;46.70;22.25;;;;;;;2.33;41.91;95726.84;5005962;28;20312;-69
2022/01/20 02:24:16;;;;;;;44.97;21.33;;;;;;;2.16;41.91;95707.38;4989181;28;20241;-69
2022/01/20 02:26:44;;;;;;;44.13;21.75;;;;;;;2.00;42.46;95737.66;4989016;28;20201;-69
2022/01/20 02:29:18;;;;;;;43.65;20.65;;;;;;;1.60;42.90;95721.88;5005464;28;20729;-70
2022/01/20 02:31:51;;;;;;;42.65;20.13;;;;;;;2.18;42.30;95720.94;4990805;28;20627;-70
2022/01/20 02:34:20;;;;;;;40.78;21.38;;;;;;;1.72;42.68;95733.34;5005070;28;20203;-69
2022/01/20 02:36:48;;;;;;;46.53;21.48;;;;;;;1.49;43.35;95727.47;4989549;28;20201;-69
2022/01/20 02:44:54;;;;;;;40.30;21.20;;;;;;;1.17;43.70;95704.63;5003989;28;20206;-70
2022/01/20 02:47:26;;;;;;;44.90;21.33;;;;;;;1.77;43.10;95708.56;5005458;28;20233;-69
2022/01/20 02:49:53;;;;;;;42.33;22.02;;;;;;;1.33;43.79;95712.19;4989672;28;20281;-69
2022/01/20 02:52:23;;;;;;;43.25;22.00;;;;;;;1.47;43.46;95717.34;5005264;28;20190;-69
2022/01/20 02:54:50;;;;;;;43.85;21.55;;;;;;;0.83;44.64;95713.66;4988799;28;20302;-71
2022/01/20 02:57:18;;;;;;;40.40;19.38;;;;;;;0.98;44.45;95695.63;5005550;28;20290;-71
2022/01/20 02:59:45;;;;;;;34.75;17.00;;;;;;;0.66;45.40;95709.63;4990275;28;20210;-72
2022/01/20 03:02:12;;;;;;;35.50;17.15;;;;;;;0.33;45.72;95710.06;5021515;28;20198;-71
2022/01/20 03:04:40;;;;;;;34.25;15.90;;;;;;;0.96;44.69;95708.69;4990154;28;20253;-71
2022/01/20 03:07:21;;;;;;;30.80;15.07;;;;;;;0.83;44.50;95703.34;4989394;28;20570;-71
2022/01/20 03:09:48;;;;;;;32.20;15.73;;;;;;;0.96;44.32;95697.56;5005161;28;20214;-71
2022/01/20 03:12:15;;;;;;;31.35;15.85;;;;;;;1.00;44.36;95696.25;4990275;28;20209;-71
2022/01/20 03:14:42;;;;;;;30.67;15.90;;;;;;;0.85;44.76;95703.97;4989429;28;20574;-70
2022/01/20 03:17:09;;;;;;;29.88;15.60;;;;;;;0.98;44.24;95696.44;4989082;28;20234;-69
2022/01/20 03:19:36;;;;;;;33.60;16.52;;;;;;;0.83;44.47;95681.88;5004563;28;20949;-71
2022/01/20 03:22:04;;;;;;;39.90;20.33;;;;;;;-0.33;47.19;95697.75;4988413;28;20663;-70
2022/01/20 03:24:32;;;;;;;38.38;19.58;;;;;;;0.86;45.24;95692.66;4988078;28;20670;-70
2022/01/20 03:26:59;;;;;;;42.85;20.45;;;;;;;0.26;47.05;95694.47;5021415;28;20187;-70
2022/01/20 03:29:26;;;;;;;45.25;20.33;;;;;;;0.79;45.46;95691.75;5004752;28;20213;-69
2022/01/20 03:31:53;;;;;;;45.03;20.70;;;;;;;0.64;45.71;95693.50;5004652;28;20233;-69
2022/01/20 03:34:22;;;;;;;38.58;19.95;;;;;;;0.87;45.60;95678.00;4988142;28;20194;-69
2022/01/20 03:36:53;;;;;;;42.78;21.00;;;;;;;0.64;45.55;95685.78;5004114;28;20241;-70
2022/01/20 03:39:31;;;;;;;40.75;20.27;;;;;;;0.30;46.69;95690.56;5003976;28;20210;-69
2022/01/20 03:41:58;;;;;;;45.72;23.38;;;;;;;0.35;46.38;95690.03;5004703;28;20222;-69
2022/01/20 03:44:28;;;;;;;52.05;27.40;;;;;;;0.94;45.41;95690.00;5021047;28;20199;-69
2022/01/20 03:46:57;;;;;;;50.05;22.70;;;;;;;-0.06;47.48;95679.25;4989542;28;20203;-69
2022/01/20 03:49:35;;;;;;;50.47;24.58;;;;;;;-0.57;49.14;95685.00;4988000;28;20667;-69
2022/01/20 03:52:04;;;;;;;50.25;22.17;;;;;;;-0.76;50.03;95687.97;5004908;28;20210;-69
2022/01/20 03:54:32;;;;;;;49.33;23.75;;;;;;;-0.32;49.08;95689.88;5004485;28;20223;-71
2022/01/20 03:57:38;;;;;;;50.80;24.00;;;;;;;-0.21;48.75;95673.22;4990620;28;20206;-70
2022/01/20 04:00:21;;;;;;;49.67;23.13;;;;;;;-0.18;48.29;95676.25;4989650;28;20269;-69
2022/01/20 04:03:00;;;;;;;50.95;23.90;;;;;;;-0.47;49.33;95680.44;5017519;28;20206;-70
2022/01/20 04:08:47;;;;;;;47.45;23.98;;;;;;;-0.60;49.93;95685.34;5004930;28;20241;-70
2022/01/20 04:11:17;;;;;;;46.85;23.20;;;;;;;-0.49;49.48;95687.50;4993715;28;20195;-70
2022/01/20 04:13:45;;;;;;;47.10;22.42;;;;;;;-0.70;49.52;95682.16;4991242;28;20194;-68
2022/01/20 04:16:50;;;;;;;47.72;22.83;;;;;;;-0.81;50.04;95682.50;4992559;28;20218;-70
2022/01/20 04:19:19;;;;;;;47.70;21.08;;;;;;;-0.88;50.05;95671.28;5007224;28;20234;-70
2022/01/20 04:21:45;;;;;;;43.33;20.88;;;;;;;-1.34;50.89;95676.25;4991685;28;20228;-68
2022/01/20 04:24:13;;;;;;;48.05;22.55;;;;;;;-1.36;51.47;95685.06;4991207;28;20198;-70
2022/01/20 04:26:41;;;;;;;46.20;21.33;;;;;;;-1.03;50.21;95653.19;4992979;28;20199;-68
2022/01/20 04:29:11;;;;;;;49.58;22.45;;;;;;;-0.56;49.00;95676.28;4992484;28;20182;-69
2022/01/20 04:31:40;;;;;;;45.58;20.27;;;;;;;-0.58;48.89;95683.38;4993064;28;20187;-69
2022/01/20 04:34:08;;;;;;;40.70;18.95;;;;;;;-1.08;49.34;95681.94;5007398;28;20685;-69
2022/01/20 04:36:39;;;;;;;42.42;20.30;;;;;;;-0.87;49.40;95683.97;5007726;28;20688;-70
2022/01/20 04:39:10;;;;;;;43.05;21.30;;;;;;;-1.20;50.02;95672.97;4991260;28;20666;-70
2022/01/20 04:41:37;;;;;;;40.40;20.92;;;;;;;-1.37;50.09;95650.84;4993017;28;20223;-70
2022/01/20 04:44:11;;;;;;;45.55;20.88;;;;;;;-0.88;49.50;95677.25;4990941;28;20257;-69
2022/01/20 04:46:45;;;;;;;40.60;19.42;;;;;;;-1.61;50.92;95684.31;5007683;28;20682;-69
2022/01/20 04:57:04;;;;;;;38.78;19.27;;;;;;;-0.93;49.38;95678.72;5007315;28;20216;-69
2022/01/20 04:57:31;;;;;;;45.08;21.10;;;;;;;-0.95;50.10;95670.34;5007159;28;20674;-70
2022/01/20 04:59:58;;;;;;;39.80;20.80;;;;;;;-1.71;51.57;95670.81;5029340;28;20586;-70
2022/01/20 05:02:27;;;;;;;46.50;22.25;;;;;;;-140.05;100.00;61859.38;5007484;28;20218;-69
2022/01/20 05:04:57;;;;;;;50.40;21.50;;;;;;;-140.05;100.00;61859.38;5043052;28;20202;-69
2022/01/20 05:07:45;;;;;;;47.17;21.88;;;;;;;-140.05;100.00;61859.38;5011049;28;20590;-68
2022/01/20 05:10:14;;;;;;;44.80;21.77;;;;;;;-140.05;100.00;61859.38;5026773;28;20296;-69
2022/01/20 05:13:10;;;;;;;48.75;23.45;;;;;;;-140.05;100.00;61859.38;5043291;28;20677;-69
2022/01/20 05:15:33;;;;;;;50.92;22.83;;;;;;;-140.05;100.00;61859.38;5009706;28;20209;-70
2022/01/20 05:18:02;;;;;;;44.28;21.85;;;;;;;-140.05;100.00;61859.38;5043327;28;20202;-69
2022/01/20 05:20:29;;;;;;;43.83;21.50;;;;;;;-140.05;100.00;61859.38;5010399;28;20602;-70
2022/01/20 05:22:57;;;;;;;44.25;22.27;;;;;;;-140.05;100.00;61859.38;5026201;28;20205;-69
2022/01/20 05:25:26;;;;;;;49.92;22.65;;;;;;;-140.05;100.00;61859.38;5010463;28;20677;-68
2022/01/20 05:27:54;;;;;;;44.75;23.42;;;;;;;-140.05;100.00;61859.38;5012065;28;20197;-69
2022/01/20 05:30:21;;;;;;;48.95;22.50;;;;;;;-140.05;100.00;61859.38;5043202;28;20209;-69
2022/01/20 05:33:11;;;;;;;48.28;22.85;;;;;;;-140.05;100.00;61859.38;5004253;28;20305;-70
2022/01/20 05:35:38;;;;;;;46.83;23.02;;;;;;;-140.05;100.00;61859.38;4989595;28;20832;-68
2022/01/20 05:38:06;;;;;;;57.60;26.00;;;;;;;-140.05;100.00;61859.38;4990119;28;20206;-69
2022/01/20 05:40:35;;;;;;;57.38;26.92;;;;;;;-140.05;100.00;61859.38;5006358;28;20610;-67
2022/01/20 05:43:03;;;;;;;56.75;28.65;;;;;;;-140.05;100.00;61859.38;5006463;28;20268;-66
2022/01/20 05:45:31;;;;;;;57.13;27.60;;;;;;;-140.05;100.00;61859.38;5006468;28;20289;-68
2022/01/20 05:48:11;;;;;;;56.10;28.63;;;;;;;-140.05;100.00;61859.38;5005455;28;20232;-67
2022/01/20 05:51:14;;;;;;;65.30;32.20;;;;;;;-140.05;100.00;61859.38;4986958;28;20202;-70
2022/01/20 05:53:41;;;;;;;59.45;30.90;;;;;;;-140.05;100.00;61859.38;4984961;28;20199;-66
2022/01/20 05:56:08;;;;;;;50.17;27.80;;;;;;;-140.05;100.00;61859.38;5005736;28;20696;-67
2022/01/20 05:58:36;;;;;;;47.15;25.35;;;;;;;-140.05;100.00;61859.38;5005376;28;20285;-66
2022/01/20 06:01:08;;;;;;;51.67;25.65;;;;;;;-140.05;100.00;61859.38;5005781;28;20316;-66
2022/01/20 06:03:38;;;;;;;38.05;18.85;;;;;;;-140.05;100.00;61859.38;5005374;28;20199;-67
2022/01/20 06:06:25;;;;;;;37.75;20.88;;;;;;;-140.05;100.00;61859.38;5006160;28;20210;-63
2022/01/20 06:08:53;;;;;;;163.63;78.75;;;;;;;-140.05;100.00;61859.38;5006084;28;20579;-66
2022/01/20 06:11:21;;;;;;;116.65;61.47;;;;;;;-140.05;100.00;61859.38;5006996;28;20203;-66
2022/01/20 06:13:49;;;;;;;34.53;16.58;;;;;;;-140.05;100.00;61859.38;4990316;28;20565;-67
2022/01/20 06:16:16;;;;;;;33.88;15.85;;;;;;;-140.05;100.00;61859.38;5005415;28;20233;-68
2022/01/20 06:18:43;;;;;;;37.30;18.13;;;;;;;-140.05;100.00;61859.38;5004277;28;20202;-69
2022/01/20 06:21:10;;;;;;;35.60;17.70;;;;;;;-140.05;100.00;61859.38;5005581;28;20222;-68
2022/01/20 06:23:37;;;;;;;35.67;18.33;;;;;;;-140.05;100.00;61859.38;4990548;28;20206;-68
2022/01/20 06:26:05;;;;;;;39.65;18.45;;;;;;;-140.05;100.00;61859.38;4990371;28;20234;-68
2022/01/20 06:28:36;;;;;;;35.97;17.00;;;;;;;-140.05;100.00;61859.38;4988802;28;20209;-69
2022/01/20 06:31:07;;;;;;;40.47;18.40;;;;;;;-140.05;100.00;61859.38;5004943;28;20260;-67
2022/01/20 06:33:34;;;;;;;38.80;18.90;;;;;;;-140.05;100.00;61859.38;5021864;28;20260;-69
2022/01/20 06:36:01;;;;;;;40.80;18.88;;;;;;;-140.05;100.00;61859.38;5005666;28;20757;-67
2022/01/20 06:38:29;;;;;;;36.28;18.25;;;;;;;-140.05;100.00;61859.38;5004826;28;20698;-69
2022/01/20 06:40:58;;;;;;;34.75;17.92;;;;;;;-140.05;100.00;61859.38;5021981;28;20222;-69
2022/01/20 06:43:28;;;;;;;39.65;20.27;;;;;;;-140.05;100.00;61859.38;5005090;28;20207;-69
2022/01/20 06:45:55;;;;;;;41.78;20.05;;;;;;;-140.05;100.00;61859.38;4987396;28;20210;-69
2022/01/20 06:48:42;;;;;;;33.85;15.48;;;;;;;-140.05;100.00;61859.38;4987955;28;20748;-69
2022/01/20 06:51:28;;;;;;;40.83;19.65;;;;;;;-140.05;100.00;61859.38;4988399;28;20188;-69
2022/01/20 06:53:56;;;;;;;41.15;19.95;;;;;;;-140.05;100.00;61859.38;5019376;28;20720;-68
2022/01/20 06:56:23;;;;;;;39.30;19.25;;;;;;;-140.05;100.00;61859.38;4987841;28;20197;-68
2022/01/20 06:59:12;;;;;;;38.85;19.08;;;;;;;-140.05;100.00;61859.38;5021588;28;20704;-69
2022/01/20 07:01:41;;;;;;;44.13;21.67;;;;;;;-140.05;100.00;61859.38;5004946;28;20309;-69
2022/01/20 07:04:13;;;;;;;38.67;17.98;;;;;;;-140.05;100.00;61859.38;5004483;28;20222;-67
2022/01/20 07:06:41;;;;;;;38.53;19.77;;;;;;;-140.05;100.00;61859.38;5021218;28;20292;-68
2022/01/20 07:09:34;;;;;;;37.00;16.50;;;;;;;-140.05;100.00;61859.38;4988680;28;20373;-69
2022/01/20 07:12:17;;;;;;;31.85;16.92;;;;;;;-140.05;100.00;61859.38;5021366;28;20733;-68
2022/01/20 07:14:45;;;;;;;44.53;18.27;;;;;;;-140.05;100.00;61859.38;5004887;28;20206;-69
2022/01/20 07:17:13;;;;;;;39.92;18.90;;;;;;;-140.05;100.00;61859.38;5005095;28;20726;-68
2022/01/20 07:19:45;;;;;;;37.22;17.75;;;;;;;-140.05;100.00;61859.38;5004606;28;20209;-67
2022/01/20 07:22:14;;;;;;;33.97;16.73;;;;;;;;;;5004896;28;20294;-67
2022/01/20 07:24:47;;;;;;;45.05;17.70;;;;;;;1.54;43.68;95673.50;5004494;28;20290;-66
2022/01/20 07:27:47;;;;;;;36.72;17.70;;;;;;;1.85;43.68;95663.72;5020871;28;20657;-67
2022/01/20 07:30:36;;;;;;;39.03;17.95;;;;;;;2.03;43.26;95661.53;5025855;28;20203;-68
2022/01/20 07:33:05;;;;;;;34.85;18.27;;;;;;;2.03;42.89;95653.75;5027720;28;20324;-68
2022/01/20 07:35:35;;;;;;;31.63;17.40;;;;;;;2.81;41.78;95649.25;5011373;28;20301;-67
2022/01/20 07:38:04;;;;;;;35.17;17.63;;;;;;;2.64;41.91;95640.19;5011122;28;20581;-68
2022/01/20 07:40:32;;;;;;;32.83;16.60;;;;;;;3.10;41.21;95630.91;5027625;28;20581;-66
2022/01/20 07:43:00;;;;;;;32.03;16.50;;;;;;;3.15;41.20;95635.53;5010904;28;20299;-67
2022/01/20 07:45:34;;;;;;;38.97;17.10;;;;;;;2.96;40.70;95634.41;5009769;28;20256;-66
2022/01/20 07:48:27;;;;;;;32.15;15.63;;;;;;;3.64;39.94;95630.94;4996345;28;20769;-66
2022/01/20 07:51:14;;;;;;;37.55;16.13;;;;;;;3.82;40.07;95651.13;5011130;28;20205;-67
2022/01/20 07:53:42;;;;;;;34.22;16.38;;;;;;;3.58;39.84;95644.66;5010657;28;20230;-68
2022/01/20 07:56:09;;;;;;;34.95;16.85;;;;;;;3.43;40.17;95651.78;5010652;28;20744;-67
2022/01/20 07:58:37;;;;;;;32.88;16.08;;;;;;;3.52;40.21;95644.66;4994643;28;20218;-67
2022/01/20 08:01:05;;;;;;;35.03;16.98;;;;;;;3.16;40.93;95654.47;5011030;28;20194;-67
2022/01/20 08:03:39;;;;;;;34.70;16.10;;;;;;;3.53;40.38;95651.44;5027309;28;20206;-67
2022/01/20 08:06:10;;;;;;;29.20;16.02;;;;;;;4.05;39.85;95651.59;4994254;28;20186;-66
2022/01/20 08:08:40;;;;;;;33.40;16.52;;;;;;;3.65;38.71;95649.91;5010537;28;20214;-67
2022/01/20 08:11:40;;;;;;;31.08;16.73;;;;;;;3.86;39.46;95647.16;5005848;28;20211;-67
2022/01/20 08:14:30;;;;;;;39.28;17.48;;;;;;;4.24;38.82;95640.44;4994797;28;20383;-68
2022/01/20 08:16:57;;;;;;;36.67;17.70;;;;;;;4.37;38.47;95655.22;5010534;28;20623;-66
2022/01/20 08:19:25;;;;;;;35.35;17.25;;;;;;;4.69;38.37;95650.03;5010937;28;20669;-68
2022/01/20 08:21:53;;;;;;;37.75;17.60;;;;;;;3.62;38.62;95647.69;5010998;28;20226;-69
2022/01/20 08:24:20;;;;;;;34.72;18.50;;;;;;;4.21;38.90;95640.84;5010827;28;20305;-67
2022/01/20 08:26:47;;;;;;;42.42;18.10;;;;;;;4.48;38.22;95637.28;4995847;28;20204;-67
2022/01/20 08:29:14;;;;;;;37.13;16.85;;;;;;;3.47;39.30;95642.63;4995739;28;20253;-67
2022/01/20 08:31:42;;;;;;;41.92;17.30;;;;;;;4.22;38.28;95639.84;5010823;28;20209;-67
2022/01/20 08:34:25;;;;;;;35.28;17.52;;;;;;;4.27;38.10;95619.28;5010347;28;20216;-68
2022/01/20 08:37:11;;;;;;;40.95;17.30;;;;;;;4.74;37.74;95637.28;4995700;28;20213;-67
2022/01/20 08:39:47;;;;;;;39.97;18.40;;;;;;;5.01;37.75;95633.66;4995993;28;20206;-67
2022/01/20 08:42:14;;;;;;;38.85;17.75;;;;;;;4.81;36.52;95627.69;5008008;28;20225;-66
2022/01/20 08:44:41;;;;;;;38.25;18.83;;;;;;;5.28;36.94;95630.97;5007055;28;20218;-68
2022/01/20 08:47:15;;;;;;;38.70;17.17;;;;;;;5.44;36.04;95613.13;5007567;28;20202;-67
2022/01/20 08:49:47;;;;;;;38.42;17.90;;;;;;;4.82;36.78;95618.88;5007528;28;20209;-66
2022/01/20 08:52:16;;;;;;;33.40;17.33;;;;;;;5.32;36.38;95629.56;5007486;28;20210;-67
2022/01/20 08:54:50;;;;;;;40.25;17.33;;;;;;;5.47;36.13;95611.91;5007208;28;20906;-68
2022/01/20 08:57:57;;;;;;;38.35;17.60;;;;;;;5.79;35.22;95610.97;4995534;28;20209;-67
2022/01/20 09:00:28;;;;;;;40.00;18.73;;;;;;;5.54;35.72;95605.69;5007296;28;20686;-67
2022/01/20 09:03:01;;;;;;;46.60;17.83;;;;;;;6.58;35.38;95606.88;5006965;28;20241;-67
2022/01/20 09:05:28;;;;;;;42.38;18.15;;;;;;;7.08;33.80;95592.75;4991960;28;20268;-67
2022/01/20 09:08:12;;;;;;;45.28;18.23;;;;;;;7.26;33.03;95605.03;4990486;28;20209;-66
2022/01/20 09:10:51;;;;;;;41.70;16.85;;;;;;;6.82;33.44;95606.06;5023480;28;20641;-67
2022/01/20 09:16:10;;;;;;;44.20;18.38;;;;;;;6.63;33.01;95595.81;5007066;28;20280;-66
2022/01/20 09:19:08;;;;;;;40.15;18.42;;;;;;;5.43;35.63;95605.53;4995332;28;20760;-67
2022/01/20 09:21:35;;;;;;;35.85;16.15;;;;;;;6.10;34.75;95613.63;5007142;28;20211;-65
2022/01/20 09:24:02;;;;;;;35.58;16.30;;;;;;;6.62;34.45;95600.22;4990391;28;20264;-66
2022/01/20 09:26:30;;;;;;;39.65;17.42;;;;;;;8.21;32.54;95578.09;5006773;28;20210;-67
2022/01/20 09:29:00;;;;;;;37.22;17.48;;;;;;;6.32;34.21;95586.25;4990472;28;20224;-66
2022/01/20 09:31:36;;;;;;;34.67;16.38;;;;;;;7.87;31.39;95574.34;5006990;28;20264;-66
2022/01/20 09:34:03;;;;;;;44.22;17.65;;;;;;;9.19;31.06;95576.47;5006636;28;20199;-66
2022/01/20 09:36:33;;;;;;;40.85;17.17;;;;;;;9.48;30.46;95564.22;5006812;28;20293;-67
2022/01/20 09:39:00;;;;;;;31.83;16.35;;;;;;;10.27;29.90;95548.44;5022844;28;20222;-68
2022/01/20 09:41:45;;;;;;;40.38;16.73;;;;;;;10.07;29.50;95548.06;4990420;28;20229;-67
2022/01/20 09:44:13;;;;;;;45.38;18.50;;;;;;;10.11;29.11;95544.75;5022594;28;20207;-68
2022/01/20 09:46:42;;;;;;;44.22;18.10;;;;;;;9.98;29.47;95544.25;4990044;28;20210;-68
2022/01/20 09:49:26;;;;;;;36.57;16.23;;;;;;;9.17;29.24;95537.47;5006023;28;20206;-68
2022/01/20 09:51:54;;;;;;;37.03;16.53;;;;;;;9.56;29.69;95535.09;5006328;28;20502;-67
2022/01/20 09:54:31;;;;;;;46.15;16.42;;;;;;;10.16;29.34;95528.34;4989404;28;20458;-68
2022/01/20 09:57:07;;;;;;;35.92;16.60;;;;;;;9.61;28.61;95532.56;5006030;28;20199;-67
2022/01/20 09:59:35;;;;;;;36.53;16.58;;;;;;;9.71;29.98;95517.03;5005524;28;20234;-68
2022/01/20 10:02:07;;;;;;;40.17;16.27;;;;;;;10.25;29.82;95513.03;4991241;28;20249;-67
2022/01/20 10:04:37;;;;;;;39.43;16.90;;;;;;;10.94;28.93;95502.78;4990733;28;20270;-67
2022/01/20 10:07:16;;;;;;;38.77;16.40;;;;;;;11.31;28.27;95483.81;4989381;28;20453;-67
2022/01/20 10:09:51;;;;;;;41.27;17.13;;;;;;;11.23;29.24;95482.41;4988892;28;20917;-68
2022/01/20 10:12:44;;;;;;;40.13;16.93;;;;;;;11.74;28.29;95476.72;4996689;28;20485;-69
2022/01/20 10:15:28;;;;;;;38.33;16.37;;;;;;;11.43;27.55;95474.78;5005824;28;20445;-67
2022/01/20 10:18:14;;;;;;;41.30;17.20;;;;;;;11.57;28.56;95464.69;5005132;28;20861;-67
2022/01/20 10:20:56;;;;;;;36.70;16.53;;;;;;;12.21;28.43;95461.88;5005764;28;20517;-67
2022/01/20 10:23:44;;;;;;;32.47;16.73;;;;;;;12.02;27.18;95457.28;4990082;28;20499;-66
2022/01/20 10:26:30;;;;;;;37.30;16.83;;;;;;;11.85;27.03;95446.09;5005609;28;20449;-67
2022/01/20 10:29:06;;;;;;;34.43;18.40;;;;;;;12.61;27.11;95450.84;5021689;28;20461;-68
2022/01/20 10:31:34;;;;;;;34.93;16.77;;;;;;;12.42;26.86;95441.00;5021035;28;20883;-68
2022/01/20 10:34:04;;;;;;;40.23;18.60;;;;;;;12.29;26.40;95431.72;5004598;28;20460;-68
2022/01/20 10:36:37;;;;;;;42.43;17.33;;;;;;;11.82;26.71;95433.47;5005934;28;20449;-68
2022/01/20 10:39:43;;;;;;;36.53;16.90;;;;;;;12.19;27.24;95423.75;4993377;28;20446;-68
2022/01/20 10:42:16;;;;;;;35.30;17.10;;;;;;;12.34;26.83;95423.88;5005307;28;20516;-67
2022/01/20 10:44:55;;;;;;;36.47;15.93;;;;;;;12.33;26.45;95417.06;4988815;28;20891;-67
2022/01/20 10:47:33;;;;;;;40.60;16.10;;;;;;;12.14;26.31;95411.41;5005097;28;20462;-67
2022/01/20 10:50:12;;;;;;;30.90;15.23;;;;;;;12.35;26.29;95417.59;5005157;28;20547;-66
2022/01/20 10:52:44;;;;;;;35.93;15.60;;;;;;;12.62;26.16;95397.25;5004909;28;20545;-67
2022/01/20 10:55:28;;;;;;;31.30;14.37;;;;;;;12.51;26.44;95405.31;5004721;28;20453;-69
2022/01/20 10:58:23;;;;;;;34.10;13.87;;;;;;;11.80;25.68;95402.22;5004911;28;20839;-67
2022/01/20 11:00:55;;;;;;;33.77;14.40;;;;;;;11.19;26.23;95374.56;4990058;28;20440;-67
2022/01/20 11:03:27;;;;;;;31.73;13.80;;;;;;;11.27;26.30;95388.28;5004448;28;20496;-67
2022/01/20 11:05:56;;;;;;;33.33;13.63;;;;;;;10.85;26.02;95385.47;5003635;28;20495;-66
2022/01/20 11:08:44;;;;;;;30.30;12.80;;;;;;;11.74;26.46;95373.53;4987943;28;20477;-67
2022/01/20 11:11:19;;;;;;;33.97;12.63;;;;;;;12.19;26.22;95363.34;5005074;28;20968;-66
2022/01/20 11:14:11;;;;;;;31.73;11.87;;;;;;;11.83;24.75;95364.94;4987898;28;21066;-66
2022/01/20 11:16:39;;;;;;;28.37;12.13;;;;;;;12.11;25.41;95358.56;4989628;28;20493;-68
2022/01/20 11:19:19;;;;;;;31.83;11.87;;;;;;;11.73;25.01;95353.56;5004501;28;20469;-68
2022/01/20 11:21:49;;;;;;;25.63;11.53;;;;;;;11.64;24.99;95334.06;5004678;28;20507;-67
2022/01/20 11:24:23;;;;;;;25.73;12.67;;;;;;;11.38;25.70;95353.25;5004128;28;20479;-67
2022/01/20 11:27:19;;;;;;;28.90;12.67;;;;;;;12.03;26.22;95338.81;4989662;28;20576;-67
2022/01/20 11:30:21;;;;;;;26.47;12.80;;;;;;;12.03;25.51;95344.06;5001591;28;20833;-67
2022/01/20 11:33:17;;;;;;;39.87;12.47;;;;;;;12.17;25.19;95342.56;5020688;28;20463;-67
2022/01/20 11:35:56;;;;;;;27.60;11.70;;;;;;;12.51;25.86;95332.53;5004552;28;20453;-67
2022/01/20 11:38:41;;;;;;;32.37;12.87;;;;;;;13.02;25.58;95326.41;4988244;28;20444;-67
2022/01/20 11:41:08;;;;;;;28.17;12.37;;;;;;;11.96;24.82;95332.19;4989724;28;20460;-66
2022/01/20 11:43:55;;;;;;;17.40;6.43;;;;;;;11.70;24.26;95338.31;4989211;28;20964;-68
2022/01/20 11:46:27;;;;;;;11.50;5.13;;;;;;;12.05;22.89;95326.22;4989490;28;20460;-67
2022/01/20 11:48:57;;;;;;;10.20;3.53;;;;;;;12.38;22.39;95327.72;4989212;28;20448;-68
2022/01/20 11:51:27;;;;;;;5.90;2.77;;;;;;;12.38;21.71;95317.22;4989664;28;21026;-67
2022/01/20 11:54:39;;;;;;;9.40;3.40;;;;;;;12.84;21.36;95308.47;4989221;28;20438;-67
2022/01/20 11:57:11;;;;;;;10.07;3.80;;;;;;;12.93;20.92;95312.16;4989449;28;20438;-70
2022/01/20 11:59:45;;;;;;;10.13;3.70;;;;;;;13.70;20.83;95295.41;5020433;28;20850;-68
2022/01/20 12:02:29;;;;;;;7.10;3.20;;;;;;;14.52;20.24;95295.78;4989663;28;20453;-66
2022/01/20 12:05:01;;;;;;;9.97;2.90;;;;;;;15.25;19.17;95265.81;5003979;28;20445;-67
2022/01/20 12:07:40;;;;;;;8.93;2.87;;;;;;;16.08;18.32;95292.09;5004464;28;20812;-67
2022/01/20 12:10:10;;;;;;;6.63;3.07;;;;;;;15.66;18.43;95281.38;4989629;28;20528;-67
2022/01/20 12:12:39;;;;;;;6.37;2.83;;;;;;;16.16;17.84;95275.63;4988175;28;20872;-68
2022/01/20 12:15:15;;;;;;;7.17;2.73;;;;;;;15.13;18.70;95288.34;4989233;28;20456;-67
2022/01/20 12:17:50;;;;;;;5.37;2.80;;;;;;;15.94;18.44;95289.34;5006682;28;20556;-66
2022/01/20 12:20:37;;;;;;;7.63;2.90;;;;;;;17.90;17.26;95267.44;4993081;28;20828;-69
2022/01/20 12:23:04;;;;;;;6.07;2.93;;;;;;;18.27;16.74;95272.59;4992630;28;20484;-67
2022/01/20 12:25:33;;;;;;;8.93;3.00;;;;;;;18.42;16.85;95275.00;4992709;28;20510;-67
2022/01/20 12:28:02;;;;;;;5.63;2.83;;;;;;;19.35;16.64;95265.63;4992541;28;20434;-69
2022/01/20 12:30:29;;;;;;;7.43;2.60;;;;;;;18.92;16.75;95268.66;5007939;28;20887;-67
2022/01/20 12:32:59;;;;;;;8.13;2.83;;;;;;;18.51;17.02;95267.91;4992419;28;20445;-66
2022/01/20 12:35:42;;;;;;;13.40;4.80;;;;;;;19.57;16.80;95268.28;4992774;28;20457;-66
2022/01/20 12:38:22;;;;;;;8.40;2.50;;;;;;;19.43;16.55;95262.25;4992356;28;20457;-70
2022/01/20 12:41:05;;;;;;;5.80;2.63;;;;;;;19.29;16.78;95264.91;4993173;28;20749;-68
2022/01/20 12:43:40;;;;;;;10.10;2.67;;;;;;;19.28;16.75;95275.84;4991753;28;20477;-68
2022/01/20 12:46:10;;;;;;;6.27;2.80;;;;;;;18.17;16.63;95273.56;4992841;28;20869;-67
2022/01/20 12:48:39;;;;;;;4.53;2.67;;;;;;;18.61;16.96;95278.31;4992320;28;20449;-69
2022/01/20 12:51:08;;;;;;;4.17;2.70;;;;;;;18.59;17.39;95269.88;5007198;28;20453;-66
2022/01/20 12:53:37;;;;;;;6.87;2.77;;;;;;;17.09;17.94;95273.97;4992329;28;20446;-67